sensor_id;sensor_type;location;lat;lon;timestamp;P1;durP1;ratioP1;P2;durP2;ratioP2
75698;SDS011;64313;51.018;13.742;2023-11-21T00:00:24;3.38;;;0.70;;
75698;SDS011;64313;51.018;13.742;2023-11-21T00:02:50;1.70;;;0.60;;
75698;SDS011;64313;51.018;13.742;2023-11-21T00:05:15;3.30;;;0.90;;
75698;SDS011;64313;51.018;13.742;2023-11-21T00:07:41;2.13;;;0.75;;
75698;SDS011;64313;51.018;13.742;2023-11-21T00:10:08;4.05;;;1.58;;
75698;SDS011;64313;51.018;13.742;2023-11-21T00:12:36;3.72;;;0.90;;
75698;SDS011;64313;51.018;13.742;2023-11-21T00:15:02;4.20;;;1.00;;
75698;SDS011;64313;51.018;13.742;2023-11-21T00:17:28;3.80;;;1.10;;
75698;SDS011;64313;51.018;13.742;2023-11-21T00:19:53;2.60;;;1.00;;
75698;SDS011;64313;51.018;13.742;2023-11-21T00:22:18;3.58;;;1.20;;
75698;SDS011;64313;51.018;13.742;2023-11-21T00:24:44;3.92;;;1.15;;
75698;SDS011;64313;51.018;13.742;2023-11-21T00:27:10;3.97;;;1.15;;
75698;SDS011;64313;51.018;13.742;2023-11-21T00:29:35;2.92;;;1.05;;
75698;SDS011;64313;51.018;13.742;2023-11-21T00:32:01;6.55;;;2.38;;
75698;SDS011;64313;51.018;13.742;2023-11-21T00:34:26;3.22;;;0.98;;
75698;SDS011;64313;51.018;13.742;2023-11-21T00:36:53;2.90;;;1.10;;
75698;SDS011;64313;51.018;13.742;2023-11-21T00:39:19;4.63;;;1.10;;
75698;SDS011;64313;51.018;13.742;2023-11-21T00:41:45;3.25;;;1.00;;
75698;SDS011;64313;51.018;13.742;2023-11-21T00:44:10;4.35;;;1.00;;
75698;SDS011;64313;51.018;13.742;2023-11-21T00:46:36;4.32;;;1.10;;
75698;SDS011;64313;51.018;13.742;2023-11-21T00:49:02;3.60;;;1.27;;
75698;SDS011;64313;51.018;13.742;2023-11-21T00:51:29;4.38;;;1.27;;
75698;SDS011;64313;51.018;13.742;2023-11-21T00:53:55;3.17;;;1.08;;
75698;SDS011;64313;51.018;13.742;2023-11-21T00:56:20;2.75;;;0.98;;
75698;SDS011;64313;51.018;13.742;2023-11-21T00:58:45;3.15;;;0.90;;
75698;SDS011;64313;51.018;13.742;2023-11-21T01:01:14;2.72;;;1.10;;
75698;SDS011;64313;51.018;13.742;2023-11-21T01:03:40;3.03;;;1.05;;
75698;SDS011;64313;51.018;13.742;2023-11-21T01:06:06;5.35;;;1.13;;
75698;SDS011;64313;51.018;13.742;2023-11-21T01:08:32;3.58;;;1.10;;
75698;SDS011;64313;51.018;13.742;2023-11-21T01:10:57;4.30;;;1.27;;
75698;SDS011;64313;51.018;13.742;2023-11-21T01:13:22;5.18;;;1.08;;
75698;SDS011;64313;51.018;13.742;2023-11-21T01:15:48;3.13;;;1.00;;
75698;SDS011;64313;51.018;13.742;2023-11-21T01:18:13;5.13;;;1.13;;
75698;SDS011;64313;51.018;13.742;2023-11-21T01:20:38;3.40;;;1.25;;
75698;SDS011;64313;51.018;13.742;2023-11-21T01:23:05;5.53;;;1.30;;
75698;SDS011;64313;51.018;13.742;2023-11-21T01:25:30;5.68;;;1.15;;
75698;SDS011;64313;51.018;13.742;2023-11-21T01:27:56;4.18;;;1.10;;
75698;SDS011;64313;51.018;13.742;2023-11-21T01:30:21;4.82;;;1.10;;
75698;SDS011;64313;51.018;13.742;2023-11-21T01:32:46;5.78;;;1.15;;
75698;SDS011;64313;51.018;13.742;2023-11-21T01:35:12;5.10;;;1.50;;
75698;SDS011;64313;51.018;13.742;2023-11-21T01:37:38;3.35;;;1.20;;
75698;SDS011;64313;51.018;13.742;2023-11-21T01:40:04;7.55;;;1.15;;
75698;SDS011;64313;51.018;13.742;2023-11-21T01:45:01;3.73;;;1.20;;
75698;SDS011;64313;51.018;13.742;2023-11-21T01:47:33;4.15;;;1.00;;
75698;SDS011;64313;51.018;13.742;2023-11-21T01:50:00;5.10;;;1.13;;
75698;SDS011;64313;51.018;13.742;2023-11-21T01:52:27;4.57;;;1.02;;
75698;SDS011;64313;51.018;13.742;2023-11-21T01:54:54;4.18;;;1.40;;
75698;SDS011;64313;51.018;13.742;2023-11-21T01:57:20;3.42;;;1.00;;
75698;SDS011;64313;51.018;13.742;2023-11-21T01:59:45;4.25;;;1.17;;
75698;SDS011;64313;51.018;13.742;2023-11-21T02:02:13;4.28;;;1.10;;
75698;SDS011;64313;51.018;13.742;2023-11-21T02:04:39;3.78;;;1.15;;
75698;SDS011;64313;51.018;13.742;2023-11-21T02:07:04;3.80;;;1.30;;
75698;SDS011;64313;51.018;13.742;2023-11-21T02:09:32;4.07;;;1.08;;
75698;SDS011;64313;51.018;13.742;2023-11-21T02:11:59;6.55;;;1.58;;
75698;SDS011;64313;51.018;13.742;2023-11-21T02:14:25;5.53;;;1.33;;
75698;SDS011;64313;51.018;13.742;2023-11-21T02:16:52;5.28;;;1.10;;
75698;SDS011;64313;51.018;13.742;2023-11-21T02:19:19;4.25;;;1.02;;
75698;SDS011;64313;51.018;13.742;2023-11-21T02:21:47;5.28;;;1.38;;
75698;SDS011;64313;51.018;13.742;2023-11-21T02:24:15;5.90;;;1.10;;
75698;SDS011;64313;51.018;13.742;2023-11-21T02:26:42;2.67;;;0.70;;
75698;SDS011;64313;51.018;13.742;2023-11-21T02:29:07;5.85;;;1.20;;
75698;SDS011;64313;51.018;13.742;2023-11-21T02:31:35;5.13;;;1.17;;
75698;SDS011;64313;51.018;13.742;2023-11-21T02:34:02;5.97;;;0.95;;
75698;SDS011;64313;51.018;13.742;2023-11-21T02:36:28;4.82;;;0.98;;
75698;SDS011;64313;51.018;13.742;2023-11-21T02:38:53;5.25;;;0.90;;
75698;SDS011;64313;51.018;13.742;2023-11-21T02:41:18;3.55;;;0.82;;
75698;SDS011;64313;51.018;13.742;2023-11-21T02:43:44;3.60;;;1.10;;
75698;SDS011;64313;51.018;13.742;2023-11-21T02:46:09;4.53;;;0.90;;
75698;SDS011;64313;51.018;13.742;2023-11-21T02:48:34;4.78;;;1.10;;
75698;SDS011;64313;51.018;13.742;2023-11-21T02:51:01;5.78;;;1.10;;
75698;SDS011;64313;51.018;13.742;2023-11-21T02:53:26;4.68;;;1.00;;
75698;SDS011;64313;51.018;13.742;2023-11-21T02:55:51;6.38;;;0.80;;
75698;SDS011;64313;51.018;13.742;2023-11-21T02:58:18;6.15;;;1.08;;
75698;SDS011;64313;51.018;13.742;2023-11-21T03:00:43;4.60;;;0.98;;
75698;SDS011;64313;51.018;13.742;2023-11-21T03:03:08;3.35;;;0.73;;
75698;SDS011;64313;51.018;13.742;2023-11-21T03:05:34;3.95;;;1.00;;
75698;SDS011;64313;51.018;13.742;2023-11-21T03:08:00;3.17;;;0.93;;
75698;SDS011;64313;51.018;13.742;2023-11-21T03:10:26;4.00;;;0.95;;
75698;SDS011;64313;51.018;13.742;2023-11-21T03:12:52;4.50;;;0.88;;
75698;SDS011;64313;51.018;13.742;2023-11-21T03:15:17;4.85;;;1.02;;
75698;SDS011;64313;51.018;13.742;2023-11-21T03:17:43;5.78;;;1.13;;
75698;SDS011;64313;51.018;13.742;2023-11-21T03:20:08;3.53;;;0.80;;
75698;SDS011;64313;51.018;13.742;2023-11-21T03:22:37;3.50;;;0.95;;
75698;SDS011;64313;51.018;13.742;2023-11-21T03:25:03;3.80;;;1.00;;
75698;SDS011;64313;51.018;13.742;2023-11-21T03:27:30;2.97;;;0.90;;
75698;SDS011;64313;51.018;13.742;2023-11-21T03:29:55;2.88;;;0.85;;
75698;SDS011;64313;51.018;13.742;2023-11-21T03:32:20;2.85;;;1.00;;
75698;SDS011;64313;51.018;13.742;2023-11-21T03:34:53;4.25;;;1.00;;
75698;SDS011;64313;51.018;13.742;2023-11-21T03:37:22;3.90;;;0.80;;
75698;SDS011;64313;51.018;13.742;2023-11-21T03:39:48;5.95;;;1.00;;
75698;SDS011;64313;51.018;13.742;2023-11-21T03:42:13;4.60;;;1.00;;
75698;SDS011;64313;51.018;13.742;2023-11-21T03:44:39;4.40;;;1.23;;
75698;SDS011;64313;51.018;13.742;2023-11-21T03:47:04;3.88;;;1.00;;
75698;SDS011;64313;51.018;13.742;2023-11-21T03:49:30;4.18;;;1.20;;
75698;SDS011;64313;51.018;13.742;2023-11-21T03:51:56;4.47;;;1.42;;
75698;SDS011;64313;51.018;13.742;2023-11-21T03:54:22;5.15;;;1.15;;
75698;SDS011;64313;51.018;13.742;2023-11-21T03:56:47;6.25;;;0.90;;
75698;SDS011;64313;51.018;13.742;2023-11-21T03:59:14;3.28;;;1.20;;
75698;SDS011;64313;51.018;13.742;2023-11-21T04:01:39;2.50;;;0.93;;
75698;SDS011;64313;51.018;13.742;2023-11-21T04:04:05;7.00;;;1.25;;
75698;SDS011;64313;51.018;13.742;2023-11-21T04:06:30;4.53;;;1.40;;
75698;SDS011;64313;51.018;13.742;2023-11-21T04:08:57;4.47;;;1.30;;
75698;SDS011;64313;51.018;13.742;2023-11-21T04:11:23;4.60;;;1.20;;
75698;SDS011;64313;51.018;13.742;2023-11-21T04:13:49;4.43;;;1.10;;
75698;SDS011;64313;51.018;13.742;2023-11-21T04:16:15;4.68;;;1.40;;
75698;SDS011;64313;51.018;13.742;2023-11-21T04:18:40;3.13;;;1.00;;
75698;SDS011;64313;51.018;13.742;2023-11-21T04:21:05;6.75;;;1.30;;
75698;SDS011;64313;51.018;13.742;2023-11-21T04:23:31;5.07;;;1.23;;
75698;SDS011;64313;51.018;13.742;2023-11-21T04:25:57;8.00;;;1.52;;
75698;SDS011;64313;51.018;13.742;2023-11-21T04:28:23;4.32;;;1.48;;
75698;SDS011;64313;51.018;13.742;2023-11-21T04:30:49;6.18;;;1.45;;
75698;SDS011;64313;51.018;13.742;2023-11-21T04:33:15;5.45;;;1.60;;
75698;SDS011;64313;51.018;13.742;2023-11-21T04:35:41;5.43;;;1.50;;
75698;SDS011;64313;51.018;13.742;2023-11-21T04:38:06;5.25;;;1.40;;
75698;SDS011;64313;51.018;13.742;2023-11-21T04:40:31;4.75;;;1.42;;
75698;SDS011;64313;51.018;13.742;2023-11-21T04:42:57;6.07;;;1.40;;
75698;SDS011;64313;51.018;13.742;2023-11-21T04:45:22;5.32;;;1.60;;
75698;SDS011;64313;51.018;13.742;2023-11-21T04:47:47;5.22;;;1.65;;
75698;SDS011;64313;51.018;13.742;2023-11-21T04:50:13;7.55;;;1.80;;
75698;SDS011;64313;51.018;13.742;2023-11-21T04:52:38;6.10;;;1.52;;
75698;SDS011;64313;51.018;13.742;2023-11-21T04:55:04;5.50;;;1.88;;
75698;SDS011;64313;51.018;13.742;2023-11-21T04:57:31;4.70;;;1.55;;
75698;SDS011;64313;51.018;13.742;2023-11-21T04:59:57;5.60;;;1.55;;
75698;SDS011;64313;51.018;13.742;2023-11-21T05:02:22;5.75;;;1.50;;
75698;SDS011;64313;51.018;13.742;2023-11-21T05:04:48;4.97;;;1.67;;
75698;SDS011;64313;51.018;13.742;2023-11-21T05:07:13;3.97;;;1.50;;
75698;SDS011;64313;51.018;13.742;2023-11-21T05:09:42;4.57;;;1.48;;
75698;SDS011;64313;51.018;13.742;2023-11-21T05:12:09;4.93;;;1.50;;
75698;SDS011;64313;51.018;13.742;2023-11-21T05:14:35;5.28;;;1.70;;
75698;SDS011;64313;51.018;13.742;2023-11-21T05:17:00;8.55;;;1.90;;
75698;SDS011;64313;51.018;13.742;2023-11-21T05:19:26;5.53;;;1.67;;
75698;SDS011;64313;51.018;13.742;2023-11-21T05:21:52;6.68;;;1.95;;
75698;SDS011;64313;51.018;13.742;2023-11-21T05:24:17;6.60;;;1.77;;
75698;SDS011;64313;51.018;13.742;2023-11-21T05:26:42;7.93;;;2.25;;
75698;SDS011;64313;51.018;13.742;2023-11-21T05:29:08;11.55;;;3.83;;
75698;SDS011;64313;51.018;13.742;2023-11-21T05:31:35;9.30;;;3.92;;
75698;SDS011;64313;51.018;13.742;2023-11-21T05:34:01;9.27;;;3.63;;
75698;SDS011;64313;51.018;13.742;2023-11-21T05:36:26;8.63;;;3.10;;
75698;SDS011;64313;51.018;13.742;2023-11-21T05:38:52;6.30;;;2.22;;
75698;SDS011;64313;51.018;13.742;2023-11-21T05:41:17;5.78;;;1.90;;
75698;SDS011;64313;51.018;13.742;2023-11-21T05:43:42;6.20;;;2.00;;
75698;SDS011;64313;51.018;13.742;2023-11-21T05:46:08;7.05;;;2.03;;
75698;SDS011;64313;51.018;13.742;2023-11-21T05:48:34;7.03;;;2.22;;
75698;SDS011;64313;51.018;13.742;2023-11-21T05:51:02;9.82;;;2.22;;
75698;SDS011;64313;51.018;13.742;2023-11-21T05:53:29;5.32;;;1.80;;
75698;SDS011;64313;51.018;13.742;2023-11-21T05:55:54;7.47;;;2.40;;
75698;SDS011;64313;51.018;13.742;2023-11-21T05:58:20;6.72;;;2.10;;
75698;SDS011;64313;51.018;13.742;2023-11-21T06:00:45;4.32;;;1.80;;
75698;SDS011;64313;51.018;13.742;2023-11-21T06:03:10;5.65;;;2.00;;
75698;SDS011;64313;51.018;13.742;2023-11-21T06:05:36;9.38;;;2.30;;
75698;SDS011;64313;51.018;13.742;2023-11-21T06:08:02;6.95;;;2.42;;
75698;SDS011;64313;51.018;13.742;2023-11-21T06:10:28;8.95;;;2.60;;
75698;SDS011;64313;51.018;13.742;2023-11-21T06:12:53;8.13;;;2.80;;
75698;SDS011;64313;51.018;13.742;2023-11-21T06:15:19;8.10;;;2.80;;
75698;SDS011;64313;51.018;13.742;2023-11-21T06:17:46;11.88;;;2.47;;
75698;SDS011;64313;51.018;13.742;2023-11-21T06:20:14;6.93;;;2.65;;
75698;SDS011;64313;51.018;13.742;2023-11-21T06:22:41;6.30;;;2.45;;
75698;SDS011;64313;51.018;13.742;2023-11-21T06:25:08;6.13;;;2.20;;
75698;SDS011;64313;51.018;13.742;2023-11-21T06:27:38;8.15;;;2.13;;
75698;SDS011;64313;51.018;13.742;2023-11-21T06:30:07;6.32;;;2.20;;
75698;SDS011;64313;51.018;13.742;2023-11-21T06:32:37;5.95;;;2.50;;
75698;SDS011;64313;51.018;13.742;2023-11-21T06:35:03;9.20;;;2.55;;
75698;SDS011;64313;51.018;13.742;2023-11-21T06:37:30;11.63;;;4.00;;
75698;SDS011;64313;51.018;13.742;2023-11-21T06:39:56;8.30;;;3.28;;
75698;SDS011;64313;51.018;13.742;2023-11-21T06:42:23;11.48;;;3.60;;
75698;SDS011;64313;51.018;13.742;2023-11-21T06:44:49;9.77;;;3.03;;
75698;SDS011;64313;51.018;13.742;2023-11-21T06:47:17;9.38;;;2.60;;
75698;SDS011;64313;51.018;13.742;2023-11-21T06:49:42;8.20;;;3.00;;
75698;SDS011;64313;51.018;13.742;2023-11-21T06:52:08;8.77;;;2.90;;
75698;SDS011;64313;51.018;13.742;2023-11-21T06:54:34;8.65;;;2.75;;
75698;SDS011;64313;51.018;13.742;2023-11-21T06:56:59;7.88;;;2.55;;
75698;SDS011;64313;51.018;13.742;2023-11-21T06:59:25;12.07;;;4.55;;
75698;SDS011;64313;51.018;13.742;2023-11-21T07:01:50;12.98;;;4.28;;
75698;SDS011;64313;51.018;13.742;2023-11-21T07:04:16;10.27;;;3.58;;
75698;SDS011;64313;51.018;13.742;2023-11-21T07:06:41;13.27;;;2.70;;
75698;SDS011;64313;51.018;13.742;2023-11-21T07:09:08;10.15;;;2.65;;
75698;SDS011;64313;51.018;13.742;2023-11-21T07:11:34;8.30;;;2.47;;
75698;SDS011;64313;51.018;13.742;2023-11-21T07:14:00;9.88;;;2.70;;
75698;SDS011;64313;51.018;13.742;2023-11-21T07:16:34;14.48;;;2.40;;
75698;SDS011;64313;51.018;13.742;2023-11-21T07:19:00;6.53;;;2.33;;
75698;SDS011;64313;51.018;13.742;2023-11-21T07:21:25;6.88;;;2.33;;
75698;SDS011;64313;51.018;13.742;2023-11-21T07:23:50;8.20;;;2.50;;
75698;SDS011;64313;51.018;13.742;2023-11-21T07:26:16;5.72;;;2.20;;
75698;SDS011;64313;51.018;13.742;2023-11-21T07:28:42;6.57;;;2.45;;
75698;SDS011;64313;51.018;13.742;2023-11-21T07:31:07;7.22;;;2.33;;
75698;SDS011;64313;51.018;13.742;2023-11-21T07:33:33;7.22;;;2.60;;
75698;SDS011;64313;51.018;13.742;2023-11-21T07:35:58;6.85;;;2.42;;
75698;SDS011;64313;51.018;13.742;2023-11-21T07:38:23;8.23;;;2.92;;
75698;SDS011;64313;51.018;13.742;2023-11-21T07:40:49;8.30;;;2.50;;
75698;SDS011;64313;51.018;13.742;2023-11-21T07:43:14;7.20;;;2.55;;
75698;SDS011;64313;51.018;13.742;2023-11-21T07:45:40;12.50;;;2.40;;
75698;SDS011;64313;51.018;13.742;2023-11-21T07:48:07;7.90;;;3.08;;
75698;SDS011;64313;51.018;13.742;2023-11-21T07:50:32;12.25;;;3.97;;
75698;SDS011;64313;51.018;13.742;2023-11-21T07:52:58;7.35;;;2.75;;
75698;SDS011;64313;51.018;13.742;2023-11-21T07:55:23;10.90;;;3.05;;
75698;SDS011;64313;51.018;13.742;2023-11-21T07:57:49;10.75;;;2.90;;
75698;SDS011;64313;51.018;13.742;2023-11-21T08:00:15;9.70;;;3.40;;
75698;SDS011;64313;51.018;13.742;2023-11-21T08:02:41;8.20;;;2.72;;
75698;SDS011;64313;51.018;13.742;2023-11-21T08:05:11;10.40;;;3.25;;
75698;SDS011;64313;51.018;13.742;2023-11-21T08:07:37;11.80;;;2.78;;
75698;SDS011;64313;51.018;13.742;2023-11-21T08:10:03;7.53;;;2.92;;
75698;SDS011;64313;51.018;13.742;2023-11-21T08:12:30;8.32;;;3.10;;
75698;SDS011;64313;51.018;13.742;2023-11-21T08:14:55;8.73;;;3.10;;
75698;SDS011;64313;51.018;13.742;2023-11-21T08:17:21;13.95;;;3.25;;
75698;SDS011;64313;51.018;13.742;2023-11-21T08:19:46;9.98;;;3.10;;
75698;SDS011;64313;51.018;13.742;2023-11-21T08:22:14;12.40;;;3.53;;
75698;SDS011;64313;51.018;13.742;2023-11-21T08:24:42;7.63;;;2.85;;
75698;SDS011;64313;51.018;13.742;2023-11-21T08:27:08;12.20;;;3.70;;
75698;SDS011;64313;51.018;13.742;2023-11-21T08:29:34;9.13;;;3.35;;
75698;SDS011;64313;51.018;13.742;2023-11-21T08:32:01;11.63;;;4.13;;
75698;SDS011;64313;51.018;13.742;2023-11-21T08:34:27;8.73;;;3.38;;
75698;SDS011;64313;51.018;13.742;2023-11-21T08:36:53;13.00;;;3.95;;
75698;SDS011;64313;51.018;13.742;2023-11-21T08:39:19;11.60;;;3.63;;
75698;SDS011;64313;51.018;13.742;2023-11-21T08:41:44;9.60;;;3.70;;
75698;SDS011;64313;51.018;13.742;2023-11-21T08:44:10;11.50;;;4.10;;
75698;SDS011;64313;51.018;13.742;2023-11-21T08:46:36;11.30;;;3.67;;
75698;SDS011;64313;51.018;13.742;2023-11-21T08:49:01;10.10;;;4.00;;
75698;SDS011;64313;51.018;13.742;2023-11-21T08:51:27;10.73;;;3.63;;
75698;SDS011;64313;51.018;13.742;2023-11-21T08:53:52;11.63;;;3.58;;
75698;SDS011;64313;51.018;13.742;2023-11-21T08:56:18;12.55;;;4.18;;
75698;SDS011;64313;51.018;13.742;2023-11-21T08:58:45;11.32;;;4.03;;
75698;SDS011;64313;51.018;13.742;2023-11-21T09:01:11;10.38;;;3.70;;
75698;SDS011;64313;51.018;13.742;2023-11-21T09:03:37;10.80;;;3.50;;
75698;SDS011;64313;51.018;13.742;2023-11-21T09:06:03;12.68;;;3.60;;
75698;SDS011;64313;51.018;13.742;2023-11-21T09:08:29;11.15;;;3.65;;
75698;SDS011;64313;51.018;13.742;2023-11-21T09:10:54;8.07;;;2.95;;
75698;SDS011;64313;51.018;13.742;2023-11-21T09:13:20;10.27;;;3.08;;
75698;SDS011;64313;51.018;13.742;2023-11-21T09:15:45;8.85;;;3.28;;
75698;SDS011;64313;51.018;13.742;2023-11-21T09:18:14;8.05;;;3.20;;
75698;SDS011;64313;51.018;13.742;2023-11-21T09:20:40;11.60;;;3.80;;
75698;SDS011;64313;51.018;13.742;2023-11-21T09:23:05;10.50;;;3.20;;
75698;SDS011;64313;51.018;13.742;2023-11-21T09:25:32;9.15;;;3.38;;
75698;SDS011;64313;51.018;13.742;2023-11-21T09:27:57;5.57;;;2.67;;
75698;SDS011;64313;51.018;13.742;2023-11-21T09:30:23;5.95;;;2.53;;
75698;SDS011;64313;51.018;13.742;2023-11-21T09:32:49;7.25;;;3.05;;
75698;SDS011;64313;51.018;13.742;2023-11-21T09:35:15;6.85;;;2.80;;
75698;SDS011;64313;51.018;13.742;2023-11-21T09:37:43;6.15;;;2.35;;
75698;SDS011;64313;51.018;13.742;2023-11-21T09:40:11;8.35;;;2.33;;
75698;SDS011;64313;51.018;13.742;2023-11-21T09:42:48;5.65;;;2.40;;
75698;SDS011;64313;51.018;13.742;2023-11-21T09:45:21;7.03;;;2.60;;
75698;SDS011;64313;51.018;13.742;2023-11-21T09:47:52;7.18;;;2.85;;
75698;SDS011;64313;51.018;13.742;2023-11-21T09:50:21;6.25;;;2.38;;
75698;SDS011;64313;51.018;13.742;2023-11-21T09:55:34;4.53;;;2.20;;
75698;SDS011;64313;51.018;13.742;2023-11-21T09:58:04;4.85;;;2.30;;
75698;SDS011;64313;51.018;13.742;2023-11-21T10:00:32;5.80;;;2.30;;
75698;SDS011;64313;51.018;13.742;2023-11-21T10:02:59;4.63;;;1.70;;
75698;SDS011;64313;51.018;13.742;2023-11-21T10:05:25;4.53;;;1.90;;
75698;SDS011;64313;51.018;13.742;2023-11-21T10:07:50;5.40;;;2.00;;
75698;SDS011;64313;51.018;13.742;2023-11-21T10:10:17;4.07;;;1.67;;
75698;SDS011;64313;51.018;13.742;2023-11-21T10:12:46;3.65;;;1.48;;
75698;SDS011;64313;51.018;13.742;2023-11-21T10:15:14;4.50;;;1.50;;
75698;SDS011;64313;51.018;13.742;2023-11-21T10:17:41;3.60;;;1.70;;
75698;SDS011;64313;51.018;13.742;2023-11-21T10:20:10;5.65;;;2.50;;
75698;SDS011;64313;51.018;13.742;2023-11-21T10:22:37;6.10;;;2.45;;
75698;SDS011;64313;51.018;13.742;2023-11-21T10:25:09;6.63;;;3.20;;
75698;SDS011;64313;51.018;13.742;2023-11-21T10:27:36;10.05;;;3.60;;
75698;SDS011;64313;51.018;13.742;2023-11-21T10:30:04;9.77;;;3.55;;
75698;SDS011;64313;51.018;13.742;2023-11-21T10:32:40;7.05;;;3.40;;
75698;SDS011;64313;51.018;13.742;2023-11-21T10:35:08;7.40;;;3.80;;
75698;SDS011;64313;51.018;13.742;2023-11-21T10:37:37;8.73;;;4.10;;
75698;SDS011;64313;51.018;13.742;2023-11-21T10:40:06;8.68;;;4.10;;
75698;SDS011;64313;51.018;13.742;2023-11-21T10:42:33;7.90;;;4.30;;
75698;SDS011;64313;51.018;13.742;2023-11-21T10:44:58;8.27;;;4.10;;
75698;SDS011;64313;51.018;13.742;2023-11-21T10:47:23;7.55;;;3.67;;
75698;SDS011;64313;51.018;13.742;2023-11-21T10:49:49;8.38;;;4.30;;
75698;SDS011;64313;51.018;13.742;2023-11-21T10:52:14;9.23;;;4.80;;
75698;SDS011;64313;51.018;13.742;2023-11-21T10:54:43;7.47;;;4.00;;
75698;SDS011;64313;51.018;13.742;2023-11-21T10:57:08;7.95;;;4.35;;
75698;SDS011;64313;51.018;13.742;2023-11-21T10:59:35;9.10;;;4.63;;
75698;SDS011;64313;51.018;13.742;2023-11-21T11:02:01;9.13;;;4.40;;
75698;SDS011;64313;51.018;13.742;2023-11-21T11:04:38;8.52;;;4.35;;
75698;SDS011;64313;51.018;13.742;2023-11-21T11:07:04;10.98;;;4.63;;
75698;SDS011;64313;51.018;13.742;2023-11-21T11:09:34;8.20;;;4.00;;
75698;SDS011;64313;51.018;13.742;2023-11-21T11:12:01;10.02;;;4.95;;
75698;SDS011;64313;51.018;13.742;2023-11-21T11:14:27;11.40;;;4.93;;
75698;SDS011;64313;51.018;13.742;2023-11-21T11:16:53;10.57;;;4.38;;
75698;SDS011;64313;51.018;13.742;2023-11-21T11:19:23;9.05;;;4.03;;
75698;SDS011;64313;51.018;13.742;2023-11-21T11:30:35;7.60;;;3.63;;
75698;SDS011;64313;51.018;13.742;2023-11-21T11:33:33;7.50;;;2.72;;
75698;SDS011;64313;51.018;13.742;2023-11-21T11:38:48;5.78;;;2.67;;
75698;SDS011;64313;51.018;13.742;2023-11-21T11:41:27;7.32;;;3.25;;
75698;SDS011;64313;51.018;13.742;2023-11-21T11:43:55;7.68;;;3.20;;
75698;SDS011;64313;51.018;13.742;2023-11-21T11:46:22;6.10;;;3.25;;
75698;SDS011;64313;51.018;13.742;2023-11-21T11:49:06;6.82;;;3.20;;
75698;SDS011;64313;51.018;13.742;2023-11-21T11:51:33;7.55;;;3.13;;
75698;SDS011;64313;51.018;13.742;2023-11-21T11:54:03;7.95;;;2.78;;
75698;SDS011;64313;51.018;13.742;2023-11-21T11:56:34;6.40;;;3.17;;
75698;SDS011;64313;51.018;13.742;2023-11-21T11:59:01;7.55;;;3.38;;
75698;SDS011;64313;51.018;13.742;2023-11-21T12:01:28;8.38;;;3.85;;
75698;SDS011;64313;51.018;13.742;2023-11-21T12:06:45;8.38;;;3.88;;
75698;SDS011;64313;51.018;13.742;2023-11-21T12:09:20;7.75;;;3.97;;
75698;SDS011;64313;51.018;13.742;2023-11-21T12:11:47;9.63;;;3.90;;
75698;SDS011;64313;51.018;13.742;2023-11-21T12:14:16;9.68;;;4.22;;
75698;SDS011;64313;51.018;13.742;2023-11-21T12:16:42;9.27;;;4.38;;
75698;SDS011;64313;51.018;13.742;2023-11-21T12:19:08;9.18;;;4.45;;
75698;SDS011;64313;51.018;13.742;2023-11-21T12:21:35;10.02;;;4.50;;
75698;SDS011;64313;51.018;13.742;2023-11-21T12:24:02;8.23;;;4.30;;
75698;SDS011;64313;51.018;13.742;2023-11-21T12:26:29;9.18;;;4.35;;
75698;SDS011;64313;51.018;13.742;2023-11-21T12:28:54;7.70;;;4.05;;
75698;SDS011;64313;51.018;13.742;2023-11-21T12:31:21;10.15;;;4.57;;
75698;SDS011;64313;51.018;13.742;2023-11-21T12:33:49;8.00;;;4.22;;
75698;SDS011;64313;51.018;13.742;2023-11-21T12:36:16;8.63;;;3.88;;
75698;SDS011;64313;51.018;13.742;2023-11-21T12:38:41;8.18;;;4.45;;
75698;SDS011;64313;51.018;13.742;2023-11-21T12:43:32;10.02;;;4.00;;
75698;SDS011;64313;51.018;13.742;2023-11-21T12:46:09;8.10;;;4.13;;
75698;SDS011;64313;51.018;13.742;2023-11-21T12:48:41;8.20;;;4.40;;
75698;SDS011;64313;51.018;13.742;2023-11-21T12:51:10;7.78;;;3.95;;
75698;SDS011;64313;51.018;13.742;2023-11-21T12:53:39;9.10;;;4.20;;
75698;SDS011;64313;51.018;13.742;2023-11-21T12:56:09;9.15;;;4.50;;
75698;SDS011;64313;51.018;13.742;2023-11-21T12:58:43;9.23;;;4.60;;
75698;SDS011;64313;51.018;13.742;2023-11-21T13:01:12;8.57;;;4.32;;
75698;SDS011;64313;51.018;13.742;2023-11-21T13:03:43;9.80;;;4.75;;
75698;SDS011;64313;51.018;13.742;2023-11-21T13:06:10;9.13;;;4.60;;
75698;SDS011;64313;51.018;13.742;2023-11-21T13:08:37;11.43;;;5.07;;
75698;SDS011;64313;51.018;13.742;2023-11-21T13:11:04;9.00;;;5.00;;
75698;SDS011;64313;51.018;13.742;2023-11-21T13:13:31;9.85;;;5.05;;
75698;SDS011;64313;51.018;13.742;2023-11-21T13:15:59;9.05;;;4.57;;
75698;SDS011;64313;51.018;13.742;2023-11-21T13:18:27;10.65;;;5.10;;
75698;SDS011;64313;51.018;13.742;2023-11-21T13:21:03;8.38;;;4.47;;
75698;SDS011;64313;51.018;13.742;2023-11-21T13:23:39;10.20;;;4.78;;
75698;SDS011;64313;51.018;13.742;2023-11-21T13:26:06;10.15;;;4.78;;
75698;SDS011;64313;51.018;13.742;2023-11-21T13:28:32;8.25;;;4.40;;
75698;SDS011;64313;51.018;13.742;2023-11-21T13:30:59;9.25;;;4.35;;
75698;SDS011;64313;51.018;13.742;2023-11-21T13:33:59;8.40;;;4.20;;
75698;SDS011;64313;51.018;13.742;2023-11-21T13:36:29;8.60;;;4.38;;
75698;SDS011;64313;51.018;13.742;2023-11-21T13:38:58;10.18;;;4.10;;
75698;SDS011;64313;51.018;13.742;2023-11-21T13:41:33;8.52;;;4.47;;
75698;SDS011;64313;51.018;13.742;2023-11-21T13:43:59;10.02;;;4.55;;
75698;SDS011;64313;51.018;13.742;2023-11-21T13:47:03;10.00;;;4.30;;
75698;SDS011;64313;51.018;13.742;2023-11-21T13:49:31;8.68;;;4.35;;
75698;SDS011;64313;51.018;13.742;2023-11-21T13:52:01;10.13;;;4.72;;
75698;SDS011;64313;51.018;13.742;2023-11-21T13:54:27;10.77;;;5.22;;
75698;SDS011;64313;51.018;13.742;2023-11-21T13:56:53;11.10;;;5.38;;
75698;SDS011;64313;51.018;13.742;2023-11-21T13:59:20;10.57;;;4.95;;
75698;SDS011;64313;51.018;13.742;2023-11-21T14:01:50;9.65;;;4.53;;
75698;SDS011;64313;51.018;13.742;2023-11-21T14:04:25;10.52;;;5.10;;
75698;SDS011;64313;51.018;13.742;2023-11-21T14:07:10;11.38;;;4.90;;
75698;SDS011;64313;51.018;13.742;2023-11-21T14:09:54;12.27;;;5.75;;
75698;SDS011;64313;51.018;13.742;2023-11-21T14:14:45;10.27;;;5.00;;
75698;SDS011;64313;51.018;13.742;2023-11-21T14:17:12;10.32;;;5.03;;
75698;SDS011;64313;51.018;13.742;2023-11-21T14:19:37;10.98;;;4.72;;
75698;SDS011;64313;51.018;13.742;2023-11-21T14:22:08;9.82;;;4.35;;
75698;SDS011;64313;51.018;13.742;2023-11-21T14:24:37;11.35;;;4.15;;
75698;SDS011;64313;51.018;13.742;2023-11-21T14:27:02;10.18;;;4.18;;
75698;SDS011;64313;51.018;13.742;2023-11-21T14:29:28;10.38;;;4.90;;
75698;SDS011;64313;51.018;13.742;2023-11-21T14:31:55;9.23;;;4.28;;
75698;SDS011;64313;51.018;13.742;2023-11-21T14:34:22;9.32;;;4.10;;
75698;SDS011;64313;51.018;13.742;2023-11-21T14:36:48;9.88;;;4.43;;
75698;SDS011;64313;51.018;13.742;2023-11-21T14:41:51;8.05;;;3.53;;
75698;SDS011;64313;51.018;13.742;2023-11-21T14:44:18;9.48;;;3.78;;
75698;SDS011;64313;51.018;13.742;2023-11-21T14:46:43;9.27;;;4.00;;
75698;SDS011;64313;51.018;13.742;2023-11-21T14:49:14;8.32;;;3.88;;
75698;SDS011;64313;51.018;13.742;2023-11-21T14:51:49;7.38;;;3.50;;
75698;SDS011;64313;51.018;13.742;2023-11-21T14:54:31;8.95;;;4.05;;
75698;SDS011;64313;51.018;13.742;2023-11-21T14:57:10;7.72;;;3.63;;
75698;SDS011;64313;51.018;13.742;2023-11-21T14:59:44;7.40;;;3.83;;